Time;durP1;ratioP1;P1;durP2;ratioP2;P2;SDS_P1;SDS_P2;PMS_P1;PMS_P2;Temp;Humidity;BMP_temperature;BMP_pressure;BME280_temperature;BME280_humidity;BME280_pressure;Samples;Min_cycle;Max_cycle;Signal;HPM_P1;HPM_P2
2021/03/09 00:00:36;;;;;;;;;;;;;;;;;;5034740;28;19909;-62
2021/03/09 00:03:02;;;;;;;;;;;;;;;;;;5035433;28;19934;-62
2021/03/09 00:05:27;;;;;;;;;;;;;;;;;;5012503;28;19971;-62
2021/03/09 00:07:52;;;;;;;;;;;;;;;;;;5015388;28;19915;-62
2021/03/09 00:10:17;;;;;;;;;;;;;;;;;;5034712;28;19952;-62
2021/03/09 00:12:42;;;;;;;;;;;;;;;;;;5035191;28;19978;-62
2021/03/09 00:15:07;;;;;;;;;;;;;;;;;;5034375;28;20333;-62
2021/03/09 00:17:32;;;;;;;;;;;;;;;;;;5032962;28;19957;-63
2021/03/09 00:19:58;;;;;;;;;;;;;;;;;;5034625;28;19909;-62
2021/03/09 00:22:23;;;;;;;;;;;;;;;;;;5034452;28;20011;-62
2021/03/09 00:24:48;;;;;;;;;;;;;;;;;;5034815;28;20339;-62
2021/03/09 00:27:13;;;;;;;;;;;;;;;;;;5033085;28;20348;-62
2021/03/09 00:29:38;;;;;;;;;;;;;;;;;;5053091;28;20312;-62
2021/03/09 00:32:03;;;;;;;;;;;;;;;;;;5034270;28;20423;-61
2021/03/09 00:34:28;;;;;;;;;;;;;;;;;;5034661;28;20008;-61
2021/03/09 00:36:53;;;;;;;;;;;;;;;;;;5031621;28;19951;-61
2021/03/09 00:39:18;;;;;;;;;;;;;;;;;;5034075;28;19905;-61
2021/03/09 00:41:44;;;;;;;;;;;;;;;;;;5034020;28;19991;-62
2021/03/09 00:44:09;;;;;;;;;;;;;;;;;;5014578;28;19951;-61
2021/03/09 00:46:34;;;;;;;;;;;;;;;;;;5049645;28;19908;-61
2021/03/09 00:48:59;;;;;;;;;;;;;;;;;;5036637;28;19924;-61
2021/03/09 00:51:24;;;;;;;;;;;;;;;;;;5034288;28;19920;-61
2021/03/09 00:53:49;;;;;;;;;;;;;;;;;;5043980;28;19948;-62
2021/03/09 00:56:14;;;;;;;;;;;;;;;;;;5051037;28;20382;-62
2021/03/09 00:58:39;;;;;;;;;;;;;;;;;;5052021;28;19908;-60
2021/03/09 01:01:04;;;;;;;;;;;;;;;;;;5052316;28;19991;-62
2021/03/09 01:03:30;;;;;;;;;;;;;;;;;;5034148;28;20007;-62
2021/03/09 01:05:55;;;;;;;;;;;;;;;;;;5041375;28;20382;-62
2021/03/09 01:08:20;;;;;;;;;;;;;;;;;;5053699;28;19908;-62
2021/03/09 01:10:45;;;;;;;;;;;;;;;;;;5052366;28;19911;-62
2021/03/09 01:13:10;;;;;;;;;;;;;;;;;;5039216;28;19913;-61
2021/03/09 01:15:35;;;;;;;;;;;;;;;;;;5041840;28;19917;-62
2021/03/09 01:18:00;;;;;;;;;;;;;;;;;;5033759;28;19909;-62
2021/03/09 01:20:26;;;;;;;;;;;;;;;;;;5033388;28;19905;-61
2021/03/09 01:22:52;;;;;;;;;;;;;;;;;;5033295;28;20260;-61
2021/03/09 01:25:17;;;;;;;;;;;;;;;;;;5034857;28;21440;-61
2021/03/09 01:27:42;;;;;;;;;;;;;;;;;;5052178;28;20322;-61
2021/03/09 01:30:07;;;;;;;;;;;;;;;;;;5051735;28;19955;-61
2021/03/09 01:32:32;;;;;;;;;;;;;;;;;;5050738;28;19909;-61
2021/03/09 01:34:57;;;;;;;;;;;;;;;;;;5039074;28;19912;-61
2021/03/09 01:37:22;;;;;;;;;;;;;;;;;;5030478;28;20319;-61
2021/03/09 01:39:47;;;;;;;;;;;;;;;;;;5033175;28;20360;-61
2021/03/09 01:42:12;;;;;;;;;;;;;;;;;;5041870;28;20364;-61
2021/03/09 01:44:38;;;;;;;;;;;;;;;;;;5033455;28;19909;-61
2021/03/09 01:47:03;;;;;;;;;;;;;;;;;;5037611;28;20303;-61
2021/03/09 01:49:28;;;;;;;;;;;;;;;;;;5052743;28;19908;-61
2021/03/09 01:51:53;;;;;;;;;;;;;;;;;;5047283;28;20391;-61
2021/03/09 01:54:18;;;;;;;;;;;;;;;;;;5033022;28;19952;-62
2021/03/09 01:56:43;;;;;;;;;;;;;;;;;;5049273;28;19950;-61
2021/03/09 01:59:08;;;;;;;;;;;;;;;;;;5052271;28;19978;-62
2021/03/09 02:01:33;;;;;;;;;;;;;;;;;;5050295;28;20429;-62
2021/03/09 02:03:58;;;;;;;;;;;;;;;;;;5033146;28;20288;-61
2021/03/09 02:06:24;;;;;;;;;;;;;;;;;;5030075;28;20269;-61
2021/03/09 02:08:49;;;;;;;;;;;;;;;;;;5032970;28;19913;-62
2021/03/09 02:11:14;;;;;;;;;;;;;;;;;;5033019;28;19915;-61
2021/03/09 02:13:39;;;;;;;;;;;;;;;;;;5052297;28;19909;-61
2021/03/09 02:16:04;;;;;;;;;;;;;;;;;;5035842;28;20275;-61
2021/03/09 02:18:29;;;;;;;;;;;;;;;;;;5033183;28;19905;-61
2021/03/09 02:20:54;;;;;;;;;;;;;;;;;;5032722;28;20365;-62
2021/03/09 02:23:20;;;;;;;;;;;;;;;;;;5032391;28;19905;-62
2021/03/09 02:25:45;;;;;;;;;;;;;;;;;;5029918;28;19909;-62
2021/03/09 02:28:10;;;;;;;;;;;;;;;;;;5033042;28;19939;-62
2021/03/09 02:30:35;;;;;;;;;;;;;;;;;;5045842;28;20007;-62
2021/03/09 02:33:01;;;;;;;;;;;;;;;;;;5039407;28;20383;-62
2021/03/09 02:35:26;;;;;;;;;;;;;;;;;;5030126;28;20407;-62
2021/03/09 02:37:51;;;;;;;;;;;;;;;;;;5032718;28;19912;-62
2021/03/09 02:40:16;;;;;;;;;;;;;;;;;;5034533;28;19912;-62
2021/03/09 02:42:41;;;;;;;;;;;;;;;;;;5037172;28;19909;-63
2021/03/09 02:45:06;;;;;;;;;;;;;;;;;;5032372;28;20356;-61
2021/03/09 02:47:32;;;;;;;;;;;;;;;;;;5043091;28;20355;-61
2021/03/09 02:49:57;;;;;;;;;;;;;;;;;;5052265;28;19909;-61
2021/03/09 02:52:22;;;;;;;;;;;;;;;;;;5045307;28;19909;-61
2021/03/09 02:54:47;;;;;;;;;;;;;;;;;;5032606;28;20287;-61
2021/03/09 02:57:12;;;;;;;;;;;;;;;;;;5048086;28;19931;-61
2021/03/09 02:59:37;;;;;;;;;;;;;;;;;;5052088;28;20291;-62
2021/03/09 03:02:02;;;;;;;;;;;;;;;;;;5033578;28;20295;-61
2021/03/09 03:04:27;;;;;;;;;;;;;;;;;;5032335;28;19909;-61
2021/03/09 03:06:52;;;;;;;;;;;;;;;;;;5030870;28;19954;-61
2021/03/09 03:09:18;;;;;;;;;;;;;;;;;;5034565;28;19909;-61
2021/03/09 03:11:43;;;;;;;;;;;;;;;;;;5037107;28;20368;-62
2021/03/09 03:14:08;;;;;;;;;;;;;;;;;;5036098;28;19963;-62
2021/03/09 03:16:33;;;;;;;;;;;;;;;;;;5030992;28;20399;-62
2021/03/09 03:18:58;;;;;;;;;;;;;;;;;;5035415;28;19912;-62
2021/03/09 03:21:23;;;;;;;;;;;;;;;;;;5035816;28;19909;-61
2021/03/09 03:23:48;;;;;;;;;;;;;;;;;;5035832;28;19905;-62
2021/03/09 03:26:13;;;;;;;;;;;;;;;;;;5037544;28;19908;-62
2021/03/09 03:28:39;;;;;;;;;;;;;;;;;;5055777;28;20284;-62
2021/03/09 03:31:04;;;;;;;;;;;;;;;;;;5046060;28;19921;-62
2021/03/09 03:33:29;;;;;;;;;;;;;;;;;;5035657;28;19948;-61
2021/03/09 03:35:54;;;;;;;;;;;;;;;;;;5032800;28;19923;-61
2021/03/09 03:38:20;;;;;;;;;;;;;;;;;;5035631;28;19909;-61
2021/03/09 03:40:45;;;;;;;;;;;;;;;;;;5036100;28;19905;-61
2021/03/09 03:43:10;;;;;;;;;;;;;;;;;;5052023;28;19917;-61
2021/03/09 03:45:35;;;;;;;;;;;;;;;;;;5052679;28;20198;-61
2021/03/09 03:48:00;;;;;;;;;;;;;;;;;;5049670;28;20406;-61
2021/03/09 03:50:25;;;;;;;;;;;;;;;;;;5034810;28;19939;-61
2021/03/09 03:52:51;;;;;;;;;;;;;;;;;;5053522;28;19912;-60
2021/03/09 03:55:16;;;;;;;;;;;;;;;;;;5053746;28;19911;-61
2021/03/09 03:57:41;;;;;;;;;;;;;;;;;;5053834;28;20364;-60
2021/03/09 04:00:06;;;;;;;;;;;;;;;;;;5034534;28;19909;-61
2021/03/09 04:02:31;;;;;;;;;;;;;;;;;;5035247;28;19909;-61
2021/03/09 04:04:57;;;;;;;;;;;;;;;;;;5035337;28;19912;-61
2021/03/09 04:07:22;;;;;;;;;;;;;;;;;;5032357;28;19913;-61
2021/03/09 04:09:47;;;;;;;;;;;;;;;;;;5034092;28;19935;-61
2021/03/09 04:12:12;;;;;;;;;;;;;;;;;;5033830;28;19996;-61
2021/03/09 04:14:37;;;;;;;;;;;;;;;;;;5035079;28;20346;-61
2021/03/09 04:17:02;;;;;;;;;;;;;;;;;;5032119;28;20349;-61
2021/03/09 04:19:27;;;;;;;;;;;;;;;;;;5033573;28;20395;-61
2021/03/09 04:21:52;;;;;;;;;;;;;;;;;;5034620;28;20431;-61
2021/03/09 04:24:17;;;;;;;;;;;;;;;;;;5041633;28;20003;-61
2021/03/09 04:26:42;;;;;;;;;;;;;;;;;;5051861;28;19999;-61
2021/03/09 04:29:08;;;;;;;;;;;;;;;;;;5054186;28;20398;-61
2021/03/09 04:31:33;;;;;;;;;;;;;;;;;;5037069;28;19952;-62
2021/03/09 04:33:58;;;;;;;;;;;;;;;;;;5033556;28;19944;-61
2021/03/09 04:36:23;;;;;;;;;;;;;;;;;;5031570;28;20000;-61
2021/03/09 04:38:48;;;;;;;;;;;;;;;;;;5044958;28;19999;-61
2021/03/09 04:41:13;;;;;;;;;;;;;;;;;;5045562;28;20034;-62
2021/03/09 04:43:38;;;;;;;;;;;;;;;;;;5053831;28;19909;-62
2021/03/09 04:46:03;;;;;;;;;;;;;;;;;;5051093;28;19904;-62
2021/03/09 04:48:28;;;;;;;;;;;;;;;;;;5050306;28;20371;-62
2021/03/09 04:50:53;;;;;;;;;;;;;;;;;;5044651;28;20398;-62
2021/03/09 04:53:19;;;;;;;;;;;;;;;;;;5033912;28;19916;-62
2021/03/09 04:55:44;;;;;;;;;;;;;;;;;;5031339;28;19905;-62
2021/03/09 04:58:09;;;;;;;;;;;;;;;;;;5034190;28;19901;-62
2021/03/09 05:00:34;;;;;;;;;;;;;;;;;;5033892;28;20275;-62
2021/03/09 05:02:59;;;;;;;;;;;;;;;;;;5034415;28;20390;-62
2021/03/09 05:05:24;;;;;;;;;;;;;;;;;;5029171;28;20447;-62
2021/03/09 05:07:49;;;;;;;;;;;;;;;;;;5033404;28;20368;-62
2021/03/09 05:10:14;;;;;;;;;;;;;;;;;;5033396;28;19991;-61
2021/03/09 05:12:40;;;;;;;;;;;;;;;;;;5033991;28;19937;-62
2021/03/09 05:15:05;;;;;;;;;;;;;;;;;;5033873;28;19901;-61
2021/03/09 05:17:30;;;;;;;;;;;;;;;;;;5031082;28;19909;-62
2021/03/09 05:19:55;;;;;;;;;;;;;;;;;;5033482;28;20000;-62
2021/03/09 05:22:20;;;;;;;;;;;;;;;;;;5033230;28;19992;-62
2021/03/09 05:24:45;;;;;;;;;;;;;;;;;;5033687;28;20044;-62
2021/03/09 05:27:10;;;;;;;;;;;;;;;;;;5030585;28;20146;-62
2021/03/09 05:29:35;;;;;;;;;;;;;;;;;;5033324;28;19995;-62
2021/03/09 05:32:01;;;;;;;;;;;;;;;;;;5032482;28;20054;-62
2021/03/09 05:34:26;;;;;;;;;;;;;;;;;;5033467;28;19944;-62
2021/03/09 05:36:51;;;;;;;;;;;;;;;;;;5035921;28;19944;-62
2021/03/09 05:39:16;;;;;;;;;;;;;;;;;;5052811;28;19905;-62
2021/03/09 05:41:41;;;;;;;;;;;;;;;;;;5035899;28;19913;-62
2021/03/09 05:44:06;;;;;;;;;;;;;;;;;;5033205;28;19905;-62
2021/03/09 05:46:31;;;;;;;;;;;;;;;;;;5035743;28;19915;-62
2021/03/09 05:48:56;;;;;;;;;;;;;;;;;;5032929;28;19916;-62
2021/03/09 05:51:21;;;;;;;;;;;;;;;;;;5033670;28;19951;-62
2021/03/09 05:53:47;;;;;;;;;;;;;;;;;;5032954;28;20370;-61
2021/03/09 05:56:12;;;;;;;;;;;;;;;;;;5034066;28;19976;-62
2021/03/09 05:58:37;;;;;;;;;;;;;;;;;;5053131;28;19905;-62
2021/03/09 06:01:02;;;;;;;;;;;;;;;;;;5048546;28;19908;-61
2021/03/09 06:03:27;;;;;;;;;;;;;;;;;;5039593;28;19916;-61
2021/03/09 06:05:52;;;;;;;;;;;;;;;;;;5029985;28;19909;-60
2021/03/09 06:08:17;;;;;;;;;;;;;;;;;;5032497;28;19909;-60
2021/03/09 06:10:43;;;;;;;;;;;;;;;;;;5035578;28;19909;-61
2021/03/09 06:13:08;;;;;;;;;;;;;;;;;;5037966;28;19909;-61
2021/03/09 06:15:33;;;;;;;;;;;;;;;;;;5049634;28;19909;-60
2021/03/09 06:17:58;;;;;;;;;;;;;;;;;;5035201;28;19905;-61
2021/03/09 06:20:23;;;;;;;;;;;;;;;;;;5032279;28;20197;-61
2021/03/09 06:22:48;;;;;;;;;;;;;;;;;;5032657;28;19905;-61
2021/03/09 06:25:13;;;;;;;;;;;;;;;;;;5031567;28;19909;-61
2021/03/09 06:27:38;;;;;;;;;;;;;;;;;;5031160;28;19905;-61
2021/03/09 06:30:04;;;;;;;;;;;;;;;;;;5032891;28;19913;-60
2021/03/09 06:32:29;;;;;;;;;;;;;;;;;;5039731;28;19913;-62
2021/03/09 06:34:54;;;;;;;;;;;;;;;;;;5032632;28;20016;-62
2021/03/09 06:37:19;;;;;;;;;;;;;;;;;;5029524;28;19991;-61
2021/03/09 06:39:44;;;;;;;;;;;;;;;;;;5032069;28;19996;-61
2021/03/09 06:42:09;;;;;;;;;;;;;;;;;;5042675;28;19974;-61
2021/03/09 06:44:34;;;;;;;;;;;;;;;;;;5055643;28;19905;-61
2021/03/09 06:46:59;;;;;;;;;;;;;;;;;;5044878;28;20378;-61
2021/03/09 06:49:25;;;;;;;;;;;;;;;;;;5035570;28;19916;-61
2021/03/09 06:51:50;;;;;;;;;;;;;;;;;;5036134;28;19913;-62
2021/03/09 06:54:15;;;;;;;;;;;;;;;;;;5045087;28;19908;-62
2021/03/09 06:56:40;;;;;;;;;;;;;;;;;;5052621;28;19958;-62
2021/03/09 06:59:05;;;;;;;;;;;;;;;;;;5046762;28;19931;-62
2021/03/09 07:01:30;;;;;;;;;;;;;;;;;;5035956;28;20008;-62
2021/03/09 07:03:55;;;;;;;;;;;;;;;;;;5041047;28;19932;-62
2021/03/09 07:06:20;;;;;;;;;;;;;;;;;;5030153;28;19913;-62
2021/03/09 07:08:46;;;;;;;;;;;;;;;;;;5026145;28;20331;-62
2021/03/09 07:11:11;;;;;;;;;;;;;;;;;;5031724;28;20280;-62
2021/03/09 07:13:36;;;;;;;;;;;;;;;;;;5042484;28;19916;-62
2021/03/09 07:16:01;;;;;;;;;;;;;;;;;;5013116;28;19905;-62
2021/03/09 07:18:26;;;;;;;;;;;;;;;;;;5021604;28;19905;-62
2021/03/09 07:20:51;;;;;;;;;;;;;;;;;;5035439;28;19935;-62
2021/03/09 07:23:16;;;;;;;;;;;;;;;;;;5045268;28;20350;-62
2021/03/09 07:25:41;;;;;;;;;;;;;;;;;;5031486;28;19909;-62
2021/03/09 07:28:06;;;;;;;;;;;;;;;;;;5035550;28;19913;-62
2021/03/09 07:30:35;;;;;;;;;;;;;;;;;;5042348;28;19924;-62
2021/03/09 07:33:00;;;;;;;;;;;;;;;;;;5035619;28;19940;-62
2021/03/09 07:35:25;;;;;;;;;;;;;;;;;;5022577;28;20121;-62
2021/03/09 07:37:50;;;;;;;;;;;;;;;;;;5033494;28;19920;-61
2021/03/09 07:40:16;;;;;;;;;;;;;;;;;;5034367;28;20427;-62
2021/03/09 07:42:41;;;;;;;;;;;;;;;;;;5040161;28;19913;-62
2021/03/09 07:45:06;;;;;;;;;;;;;;;;;;5055119;28;20391;-62
2021/03/09 07:47:31;;;;;;;;;;;;;;;;;;5052915;28;19911;-62
2021/03/09 07:49:56;;;;;;;;;;;;;;;;;;5054862;28;19931;-62
2021/03/09 07:52:21;;;;;;;;;;;;;;;;;;5036453;28;19913;-61
2021/03/09 07:54:46;;;;;;;;;;;;;;;;;;5035347;28;19912;-62
2021/03/09 07:57:11;;;;;;;;;;;;;;;;;;5032242;28;19932;-62
2021/03/09 07:59:36;;;;;;;;;;;;;;;;;;5034807;28;20323;-62
2021/03/09 08:02:01;;;;;;;;;;;;;;;;;;5034830;28;20384;-62
2021/03/09 08:04:27;;;;;;;;;;;;;;;;;;5023793;28;20289;-61
2021/03/09 08:06:52;;;;;;;;;;;;;;;;;;5012261;28;19905;-62
2021/03/09 08:09:17;;;;;;;;;;;;;;;;;;5015080;28;20377;-62
2021/03/09 08:11:42;;;;;;;;;;;;;;;;;;5029934;28;20010;-62
2021/03/09 08:14:07;;;;;;;;;;;;;;;;;;5034923;28;19905;-62
2021/03/09 08:16:32;;;;;;;;;;;;;;;;;;5032171;28;19951;-61
2021/03/09 08:18:57;;;;;;;;;;;;;;;;;;5034442;28;19908;-61
2021/03/09 08:21:22;;;;;;;;;;;;;;;;;;5034403;28;20996;-62
2021/03/09 08:23:48;;;;;;;;;;;;;;;;;;5034417;28;20443;-62
2021/03/09 08:26:13;;;;;;;;;;;;;;;;;;5014577;28;19952;-62
2021/03/09 08:28:38;;;;;;;;;;;;;;;;;;5014957;28;20008;-61
2021/03/09 08:31:03;;;;;;;;;;;;;;;;;;5028224;28;19917;-62
2021/03/09 08:33:28;;;;;;;;;;;;;;;;;;5034562;28;19916;-62
2021/03/09 08:35:53;;;;;;;;;;;;;;;;;;5031492;28;20307;-61
2021/03/09 08:38:18;;;;;;;;;;;;;;;;;;5034288;28;20003;-62
2021/03/09 08:40:43;;;;;;;;;;;;;;;;;;5037651;28;19905;-62
2021/03/09 08:43:09;;;;;;;;;;;;;;;;;;5033356;28;20261;-62
2021/03/09 08:45:34;;;;;;;;;;;;;;;;;;5031154;28;20400;-62
2021/03/09 08:47:59;;;;;;;;;;;;;;;;;;5034763;28;19912;-62
2021/03/09 08:50:24;;;;;;;;;;;;;;;;;;5033964;28;19963;-63
2021/03/09 08:52:49;;;;;;;;;;;;;;;;;;5033289;28;19909;-62
2021/03/09 08:55:14;;;;;;;;;;;;;;;;;;5032847;28;19916;-62
2021/03/09 08:57:39;;;;;;;;;;;;;;;;;;5032847;28;20315;-62
2021/03/09 09:00:04;;;;;;;;;;;;;;;;;;5033318;28;19951;-63
2021/03/09 09:02:30;;;;;;;;;;;;;;;;;;5036399;28;19944;-62
2021/03/09 09:04:55;;;;;;;;;;;;;;;;;;5050545;28;19912;-62
2021/03/09 09:07:20;;;;;;;;;;;;;;;;;;5079093;28;19916;-62
2021/03/09 09:09:45;;;;;;;;;;;;;;;;;;5033454;28;20378;-63
2021/03/09 09:12:11;;;;;;;;;;;;;;;;;;5033948;28;19998;-61
2021/03/09 09:14:36;;;;;;;;;;;;;;;;;;5033640;28;20379;-62
2021/03/09 09:17:01;;;;;;;;;;;;;;;;;;5015308;28;20381;-62
2021/03/09 09:19:26;;;;;;;;;;;;;;;;;;5015971;28;20275;-62
2021/03/09 09:21:51;;;;;;;;;;;;;;;;;;5013866;28;19953;-62
2021/03/09 09:24:16;;;;;;;;;;;;;;;;;;5027596;28;19944;-62
2021/03/09 09:26:41;;;;;;;;;;;;;;;;;;5030740;28;19908;-62
2021/03/09 09:29:06;;;;;;;;;;;;;;;;;;5033042;28;19916;-61
2021/03/09 09:31:31;;;;;;;;;;;;;;;;;;5046938;28;19999;-62
2021/03/09 09:33:57;;;;;;;;;;;;;;;;;;5030652;28;20036;-62
2021/03/09 09:36:22;;;;;;;;;;;;;;;;;;5029584;28;19999;-61
2021/03/09 09:38:47;;;;;;;;;;;;;;;;;;5032145;28;19905;-62
2021/03/09 09:41:12;;;;;;;;;;;;;;;;;;5043656;28;19909;-62
2021/03/09 09:43:37;;;;;;;;;;;;;;;;;;5036552;28;20273;-62
2021/03/09 09:46:02;;;;;;;;;;;;;;;;;;5030126;28;19912;-62
2021/03/09 09:48:27;;;;;;;;;;;;;;;;;;5032401;28;20003;-61
2021/03/09 09:50:52;;;;;;;;;;;;;;;;;;5028836;28;20015;-62
2021/03/09 09:53:20;;;;;;;;;;;;;;;;;;5037816;28;19909;-62
2021/03/09 09:55:45;;;;;;;;;;;;;;;;;;5022766;28;19909;-62
2021/03/09 09:58:10;;;;;;;;;;;;;;;;;;5031204;28;20012;-62
2021/03/09 10:00:36;;;;;;;;;;;;;;;;;;5028768;28;19936;-62
2021/03/09 10:03:01;;;;;;;;;;;;;;;;;;5032347;28;19955;-63
2021/03/09 10:05:26;;;;;;;;;;;;;;;;;;5022855;28;19951;-62
2021/03/09 10:07:51;;;;;;;;;;;;;;;;;;5017187;28;19919;-61
2021/03/09 10:10:16;;;;;;;;;;;;;;;;;;5023879;28;20091;-62
2021/03/09 10:12:41;;;;;;;;;;;;;;;;;;5029880;28;20299;-62
2021/03/09 10:15:06;;;;;;;;;;;;;;;;;;5030101;28;20288;-62
2021/03/09 10:17:32;;;;;;;;;;;;;;;;;;5025957;28;19913;-63
2021/03/09 10:19:57;;;;;;;;;;;;;;;;;;5030960;28;19912;-64
2021/03/09 10:22:22;;;;;;;;;;;;;;;;;;5031184;28;19909;-63
2021/03/09 10:24:47;;;;;;;;;;;;;;;;;;5029954;28;19912;-62
2021/03/09 10:27:12;;;;;;;;;;;;;;;;;;5024617;28;20279;-64
2021/03/09 10:29:38;;;;;;;;;;;;;;;;;;5029288;28;19913;-62
2021/03/09 10:32:03;;;;;;;;;;;;;;;;;;5013924;28;614678;-62
2021/03/09 10:34:28;;;;;;;;;;;;;;;;;;5030245;28;19909;-61
2021/03/09 10:36:53;;;;;;;;;;;;;;;;;;5027688;28;19934;-62
2021/03/09 10:39:18;;;;;;;;;;;;;;;;;;5041906;28;19909;-63
2021/03/09 10:41:43;;;;;;;;;;;;;;;;;;5031229;28;19909;-61
2021/03/09 10:44:08;;;;;;;;;;;;;;;;;;5027639;28;19909;-62
2021/03/09 10:46:34;;;;;;;;;;;;;;;;;;5022813;28;19909;-64
2021/03/09 10:48:59;;;;;;;;;;;;;;;;;;5032898;28;20417;-64
2021/03/09 10:51:24;;;;;;;;;;;;;;;;;;5040325;28;19924;-63
2021/03/09 10:53:49;;;;;;;;;;;;;;;;;;5030742;28;19917;-63
2021/03/09 10:56:15;;;;;;;;;;;;;;;;;;5023525;28;19909;-64
2021/03/09 10:58:40;;;;;;;;;;;;;;;;;;5013130;28;19997;-64
2021/03/09 11:01:05;;;;;;;;;;;;;;;;;;5024713;28;20011;-64
2021/03/09 11:03:30;;;;;;;;;;;;;;;;;;5018404;28;20312;-66
2021/03/09 11:05:55;;;;;;;;;;;;;;;;;;5028724;28;19913;-65
2021/03/09 11:08:20;;;;;;;;;;;;;;;;;;5033317;28;19913;-66
2021/03/09 11:10:45;;;;;;;;;;;;;;;;;;5032300;28;19940;-67
2021/03/09 11:13:13;;;;;;;;;;;;;;;;;;5032287;28;19952;-66
2021/03/09 11:15:38;;;;;;;;;;;;;;;;;;5026067;28;19909;-67
2021/03/09 11:18:03;;;;;;;;;;;;;;;;;;5031990;28;19909;-68
2021/03/09 11:20:28;;;;;;;;;;;;;;;;;;5031797;28;20253;-67
2021/03/09 11:22:53;;;;;;;;;;;;;;;;;;5026866;28;20326;-63
2021/03/09 11:25:18;;;;;;;;;;;;;;;;;;5019970;28;20375;-64
2021/03/09 11:27:43;;;;;;;;;;;;;;;;;;5011305;28;20349;-63
2021/03/09 11:30:08;;;;;;;;;;;;;;;;;;5029167;28;19913;-63
2021/03/09 11:32:34;;;;;;;;;;;;;;;;;;5019216;28;19913;-63
2021/03/09 11:34:59;;;;;;;;;;;;;;;;;;5035589;28;20284;-63
2021/03/09 11:37:24;;;;;;;;;;;;;;;;;;5025904;28;20573;-63
2021/03/09 11:39:49;;;;;;;;;;;;;;;;;;5016847;28;20299;-63
2021/03/09 11:42:14;;;;;;;;;;;;;;;;;;5023255;28;20321;-61
2021/03/09 11:44:39;;;;;;;;;;;;;;;;;;5026038;28;20275;-62
2021/03/09 11:47:04;;;;;;;;;;;;;;;;;;5019391;28;20364;-62
2021/03/09 11:49:29;;;;;;;;;;;;;;;;;;5018243;28;20863;-66
2021/03/09 11:51:54;;;;;;;;;;;;;;;;;;5020229;28;19915;-63
2021/03/09 11:54:20;;;;;;;;;;;;;;;;;;5028057;28;19909;-63
2021/03/09 11:56:45;;;;;;;;;;;;;;;;;;5028283;28;19909;-63
2021/03/09 11:59:10;;;;;;;;;;;;;;;;;;5050305;28;20082;-63
2021/03/09 12:01:35;;;;;;;;;;;;;;;;;;5053169;28;19904;-63
2021/03/09 12:04:00;;;;;;;;;;;;;;;;;;5049338;28;19996;-63
2021/03/09 12:06:25;;;;;;;;;;;;;;;;;;5021627;28;19916;-63
2021/03/09 12:08:50;;;;;;;;;;;;;;;;;;5033930;28;19913;-63
2021/03/09 12:11:15;;;;;;;;;;;;;;;;;;5028574;28;19910;-63
2021/03/09 12:13:41;;;;;;;;;;;;;;;;;;5023362;28;19924;-64
2021/03/09 12:16:06;;;;;;;;;;;;;;;;;;5031600;28;19916;-64
2021/03/09 12:18:31;;;;;;;;;;;;;;;;;;5026066;28;19975;-64
2021/03/09 12:20:56;;;;;;;;;;;;;;;;;;5017213;28;19916;-64
2021/03/09 12:23:23;;;;;;;;;;;;;;;;;;5064594;28;19915;-63
2021/03/09 12:25:48;;;;;;;;;;;;;;;;;;5050843;28;20319;-65
2021/03/09 12:28:13;;;;;;;;;;;;;;;;;;5034028;28;19909;-64
2021/03/09 12:30:39;;;;;;;;;;;;;;;;;;5030993;28;20003;-64
2021/03/09 12:33:04;;;;;;;;;;;;;;;;;;5049673;28;20007;-64
2021/03/09 12:35:29;;;;;;;;;;;;;;;;;;5033143;28;20296;-63
2021/03/09 12:37:55;;;;;;;;;;;;;;;;;;5016821;28;19915;-63
2021/03/09 12:40:20;;;;;;;;;;;;;;;;;;5019811;28;19967;-63
2021/03/09 12:42:45;;;;;;;;;;;;;;;;;;5041482;28;19949;-63
2021/03/09 12:45:10;;;;;;;;;;;;;;;;;;5036130;28;19913;-63
2021/03/09 12:47:35;;;;;;;;;;;;;;;;;;5032097;28;19940;-63
2021/03/09 12:50:00;;;;;;;;;;;;;;;;;;5037099;28;19913;-63
2021/03/09 12:52:25;;;;;;;;;;;;;;;;;;5017025;28;19909;-63
2021/03/09 12:54:50;;;;;;;;;;;;;;;;;;5030772;28;20027;-63
2021/03/09 12:57:16;;;;;;;;;;;;;;;;;;5031620;28;19995;-64
2021/03/09 12:59:41;;;;;;;;;;;;;;;;;;5035421;28;19999;-63
2021/03/09 13:02:06;;;;;;;;;;;;;;;;;;5033797;28;20047;-63
2021/03/09 13:04:31;;;;;;;;;;;;;;;;;;5034144;28;19956;-64
2021/03/09 13:06:56;;;;;;;;;;;;;;;;;;5030979;28;19904;-64
2021/03/09 13:09:21;;;;;;;;;;;;;;;;;;5033951;28;19913;-63
2021/03/09 13:11:46;;;;;;;;;;;;;;;;;;5048260;28;19908;-63
2021/03/09 13:14:11;;;;;;;;;;;;;;;;;;5049051;28;19920;-64
2021/03/09 13:16:36;;;;;;;;;;;;;;;;;;5044845;28;19916;-63
2021/03/09 13:19:02;;;;;;;;;;;;;;;;;;5035111;28;19952;-63
2021/03/09 13:21:27;;;;;;;;;;;;;;;;;;5037616;28;20343;-63
2021/03/09 13:23:52;;;;;;;;;;;;;;;;;;5047222;28;19912;-63
2021/03/09 13:26:17;;;;;;;;;;;;;;;;;;5033993;28;19959;-63
2021/03/09 13:28:42;;;;;;;;;;;;;;;;;;5035673;28;20004;-63
2021/03/09 13:31:07;;;;;;;;;;;;;;;;;;5040314;28;20021;-63
2021/03/09 13:33:32;;;;;;;;;;;;;;;;;;5049739;28;19955;-63
2021/03/09 13:35:57;;;;;;;;;;;;;;;;;;5048220;28;19912;-63
2021/03/09 13:38:23;;;;;;;;;;;;;;;;;;5046146;28;19912;-63
2021/03/09 13:40:48;;;;;;;;;;;;;;;;;;5052188;28;19909;-63
2021/03/09 13:43:13;;;;;;;;;;;;;;;;;;5053256;28;19904;-62
2021/03/09 13:45:38;;;;;;;;;;;;;;;;;;5041613;28;19916;-62
2021/03/09 13:48:03;;;;;;;;;;;;;;;;;;5050354;28;20337;-63
2021/03/09 13:50:28;;;;;;;;;;;;;;;;;;5051839;28;20370;-63
2021/03/09 13:52:53;;;;;;;;;;;;;;;;;;5051359;28;20367;-62
2021/03/09 13:55:18;;;;;;;;;;;;;;;;;;5045261;28;19909;-63
2021/03/09 13:57:44;;;;;;;;;;;;;;;;;;5037456;28;19924;-62
2021/03/09 14:00:09;;;;;;;;;;;;;;;;;;5035463;28;19908;-63
2021/03/09 14:02:34;;;;;;;;;;;;;;;;;;5026024;28;19967;-62
2021/03/09 14:04:59;;;;;;;;;;;;;;;;;;5034466;28;20311;-62
2021/03/09 14:07:24;;;;;;;;;;;;;;;;;;5040981;28;20268;-62
2021/03/09 14:09:50;;;;;;;;;;;;;;;;;;5031226;28;19913;-61
2021/03/09 14:12:15;;;;;;;;;;;;;;;;;;5025710;28;20362;-60
2021/03/09 14:14:40;;;;;;;;;;;;;;;;;;5027976;28;19909;-62
2021/03/09 14:17:05;;;;;;;;;;;;;;;;;;5022378;28;19912;-61
2021/03/09 14:19:30;;;;;;;;;;;;;;;;;;5050190;28;19909;-62
2021/03/09 14:21:55;;;;;;;;;;;;;;;;;;5046294;28;20322;-62
2021/03/09 14:24:20;;;;;;;;;;;;;;;;;;5052820;28;19916;-62
2021/03/09 14:26:47;;;;;;;;;;;;;;;;;;5047884;28;19935;-63
2021/03/09 14:29:13;;;;;;;;;;;;;;;;;;5051433;28;19919;-62
2021/03/09 14:31:38;;;;;;;;;;;;;;;;;;5046005;28;20028;-62
2021/03/09 14:34:03;;;;;;;;;;;;;;;;;;5036044;28;19917;-63
2021/03/09 14:36:28;;;;;;;;;;;;;;;;;;5029034;28;19909;-62
2021/03/09 14:38:53;;;;;;;;;;;;;;;;;;5050208;28;19991;-61
2021/03/09 14:41:18;;;;;;;;;;;;;;;;;;5047501;28;19916;-62
2021/03/09 14:43:43;;;;;;;;;;;;;;;;;;5039811;28;19987;-61
2021/03/09 14:46:08;;;;;;;;;;;;;;;;;;5033139;28;20004;-61
2021/03/09 14:48:34;;;;;;;;;;;;;;;;;;5042859;28;20003;-62
2021/03/09 14:50:59;;;;;;;;;;;;;;;;;;5035755;28;20008;-63
2021/03/09 14:53:24;;;;;;;;;;;;;;;;;;5052220;28;20147;-62
2021/03/09 14:55:49;;;;;;;;;;;;;;;;;;5039102;28;20435;-62
2021/03/09 14:58:14;;;;;;;;;;;;;;;;;;5039303;28;19909;-61
2021/03/09 15:00:39;;;;;;;;;;;;;;;;;;5043361;28;19928;-62
2021/03/09 15:03:04;;;;;;;;;;;;;;;;;;5039725;28;19913;-62
2021/03/09 15:05:29;;;;;;;;;;;;;;;;;;5041159;28;19920;-62
2021/03/09 15:07:54;;;;;;;;;;;;;;;;;;5046068;28;19908;-61
2021/03/09 15:10:20;;;;;;;;;;;;;;;;;;5042889;28;20291;-61
2021/03/09 15:12:45;;;;;;;;;;;;;;;;;;5052591;28;19995;-61
2021/03/09 15:15:10;;;;;;;;;;;;;;;;;;5053943;28;19995;-62
2021/03/09 15:17:35;;;;;;;;;;;;;;;;;;5042121;28;19905;-62
2021/03/09 15:20:00;;;;;;;;;;;;;;;;;;5053558;28;19920;-61
2021/03/09 15:22:26;;;;;;;;;;;;;;;;;;5047406;28;19998;-61
2021/03/09 15:24:51;;;;;;;;;;;;;;;;;;5047063;28;19913;-62
2021/03/09 15:27:16;;;;;;;;;;;;;;;;;;5029414;28;19909;-62
2021/03/09 15:29:41;;;;;;;;;;;;;;;;;;5029472;28;19987;-62
2021/03/09 15:32:06;;;;;;;;;;;;;;;;;;5055293;28;19927;-62
2021/03/09 15:34:31;;;;;;;;;;;;;;;;;;5032098;28;19909;-62
2021/03/09 15:36:56;;;;;;;;;;;;;;;;;;5038788;28;19962;-61
2021/03/09 15:39:21;;;;;;;;;;;;;;;;;;5040748;28;19916;-60
2021/03/09 15:41:46;;;;;;;;;;;;;;;;;;5033099;28;19913;-61
2021/03/09 15:44:12;;;;;;;;;;;;;;;;;;5040277;28;19920;-62
2021/03/09 15:46:37;;;;;;;;;;;;;;;;;;5036216;28;20345;-61
2021/03/09 15:49:02;;;;;;;;;;;;;;;;;;5045662;28;20339;-61
2021/03/09 15:51:27;;;;;;;;;;;;;;;;;;5038228;28;19915;-61
2021/03/09 15:53:52;;;;;;;;;;;;;;;;;;5040269;28;20003;-61
2021/03/09 15:56:17;;;;;;;;;;;;;;;;;;5036311;28;19908;-62
2021/03/09 15:58:42;;;;;;;;;;;;;;;;;;5041590;28;19964;-62
2021/03/09 16:01:08;;;;;;;;;;;;;;;;;;5038231;28;20340;-62
2021/03/09 16:03:33;;;;;;;;;;;;;;;;;;5040179;28;19962;-62
2021/03/09 16:05:58;;;;;;;;;;;;;;;;;;5032339;28;19912;-62
2021/03/09 16:08:23;;;;;;;;;;;;;;;;;;5037672;28;19913;-62
2021/03/09 16:10:48;;;;;;;;;;;;;;;;;;5036825;28;19995;-61
2021/03/09 16:13:14;;;;;;;;;;;;;;;;;;5038676;28;20007;-62
2021/03/09 16:15:39;;;;;;;;;;;;;;;;;;5034534;28;19999;-61
2021/03/09 16:18:04;;;;;;;;;;;;;;;;;;5038585;28;20008;-62
2021/03/09 16:20:30;;;;;;;;;;;;;;;;;;5032525;28;19956;-62
2021/03/09 16:22:55;;;;;;;;;;;;;;;;;;5037569;28;19920;-62
2021/03/09 16:25:21;;;;;;;;;;;;;;;;;;5033884;28;19909;-61
2021/03/09 16:27:46;;;;;;;;;;;;;;;;;;5032988;28;20356;-62
2021/03/09 16:30:11;;;;;;;;;;;;;;;;;;5042507;28;19932;-61